Terminal Aerodrome Forecast
Issued by NWS

Home | Current Version | Previous Version | Text Only | Print | Product List | Glossary On
Versions: 1 2 3 4 5 6 7 8 9 10 11 12 13 14 15 16 17 18 19 20 21 22 23 24 25
000
FTUS42 KGSP 200500
TAFHKY
TAF
KHKY 200520Z 2006/2106 36003KT P6SM BKN100
      TEMPO 2009/2013 3SM BR SCT025 OVC040
     FM201300 32003KT P6SM SCT060
     FM202100 25005KT P6SM SCT060
     FM210000 28003KT P6SM SCT060=

USA.gov is the U.S. government's official web portal to all federal, state and local government web resources and services.